sensor_id;sensor_type;location;lat;lon;timestamp;pressure;altitude;pressure_sealevel;temperature;humidity
50434;BME280;36361;38.954;-9.002;2022-07-29T00:00:47;100684.81;;;22.29;72.99
50434;BME280;36361;38.954;-9.002;2022-07-29T00:01:48;100694.72;;;22.06;73.78
50434;BME280;36361;38.954;-9.002;2022-07-29T00:02:49;100685.41;;;22.26;73.74
50434;BME280;36361;38.954;-9.002;2022-07-29T00:03:50;100685.38;;;22.55;72.37
50434;BME280;36361;38.954;-9.002;2022-07-29T00:04:51;100682.56;;;22.31;73.09
50434;BME280;36361;38.954;-9.002;2022-07-29T00:05:52;100695.22;;;22.42;73.05
50434;BME280;36361;38.954;-9.002;2022-07-29T00:06:53;100686.19;;;22.79;71.58
50434;BME280;36361;38.954;-9.002;2022-07-29T00:07:59;100678.97;;;23.02;70.48
50434;BME280;36361;38.954;-9.002;2022-07-29T00:09:00;100682.66;;;23.16;69.37
50434;BME280;36361;38.954;-9.002;2022-07-29T00:10:01;100685.66;;;23.39;68.62
50434;BME280;36361;38.954;-9.002;2022-07-29T00:11:02;100688.13;;;23.03;69.41
50434;BME280;36361;38.954;-9.002;2022-07-29T00:12:08;100690.97;;;22.97;69.81
50434;BME280;36361;38.954;-9.002;2022-07-29T00:13:09;100683.00;;;22.67;71.60
50434;BME280;36361;38.954;-9.002;2022-07-29T00:14:10;100682.56;;;22.31;72.18
50434;BME280;36361;38.954;-9.002;2022-07-29T00:15:17;100681.84;;;22.20;73.30
50434;BME280;36361;38.954;-9.002;2022-07-29T00:16:18;100688.59;;;22.14;73.44
50434;BME280;36361;38.954;-9.002;2022-07-29T00:17:19;100679.69;;;22.17;73.47
50434;BME280;36361;38.954;-9.002;2022-07-29T00:18:19;100678.78;;;22.22;73.71
50434;BME280;36361;38.954;-9.002;2022-07-29T00:19:20;100674.31;;;22.26;73.14
50434;BME280;36361;38.954;-9.002;2022-07-29T00:20:21;100674.63;;;22.24;73.46
50434;BME280;36361;38.954;-9.002;2022-07-29T00:21:22;100677.66;;;22.52;72.60
50434;BME280;36361;38.954;-9.002;2022-07-29T00:22:22;100674.22;;;22.60;72.02
50434;BME280;36361;38.954;-9.002;2022-07-29T00:23:23;100672.44;;;22.45;72.76
50434;BME280;36361;38.954;-9.002;2022-07-29T00:24:24;100692.16;;;21.85;74.50
50434;BME280;36361;38.954;-9.002;2022-07-29T00:25:24;100663.09;;;22.12;74.28
50434;BME280;36361;38.954;-9.002;2022-07-29T00:26:25;100667.06;;;22.01;73.91
50434;BME280;36361;38.954;-9.002;2022-07-29T00:27:28;100673.69;;;22.05;74.05
50434;BME280;36361;38.954;-9.002;2022-07-29T00:28:28;100687.31;;;21.67;75.19
50434;BME280;36361;38.954;-9.002;2022-07-29T00:29:29;100680.94;;;21.22;77.00
50434;BME280;36361;38.954;-9.002;2022-07-29T00:30:33;100679.84;;;21.23;77.60
50434;BME280;36361;38.954;-9.002;2022-07-29T00:31:33;100679.97;;;21.47;76.67
50434;BME280;36361;38.954;-9.002;2022-07-29T00:32:34;100679.13;;;21.47;76.44
50434;BME280;36361;38.954;-9.002;2022-07-29T00:33:35;100681.72;;;21.72;76.44
50434;BME280;36361;38.954;-9.002;2022-07-29T00:34:36;100684.78;;;21.71;75.50
50434;BME280;36361;38.954;-9.002;2022-07-29T00:35:55;100677.41;;;21.56;76.09
50434;BME280;36361;38.954;-9.002;2022-07-29T00:36:57;100680.78;;;21.48;76.21
50434;BME280;36361;38.954;-9.002;2022-07-29T00:37:57;100672.59;;;21.67;75.82
50434;BME280;36361;38.954;-9.002;2022-07-29T00:38:58;100675.63;;;21.36;76.75
50434;BME280;36361;38.954;-9.002;2022-07-29T00:39:59;100671.31;;;21.59;76.72
50434;BME280;36361;38.954;-9.002;2022-07-29T00:41:00;100677.63;;;21.94;75.11
50434;BME280;36361;38.954;-9.002;2022-07-29T00:42:03;100670.34;;;22.08;74.37
50434;BME280;36361;38.954;-9.002;2022-07-29T00:43:05;100679.53;;;21.69;74.69
50434;BME280;36361;38.954;-9.002;2022-07-29T00:44:05;100672.50;;;21.82;74.45
50434;BME280;36361;38.954;-9.002;2022-07-29T00:45:06;100669.72;;;22.16;73.22
50434;BME280;36361;38.954;-9.002;2022-07-29T00:46:07;100672.38;;;21.63;75.22
50434;BME280;36361;38.954;-9.002;2022-07-29T00:47:09;100677.59;;;21.25;76.79
50434;BME280;36361;38.954;-9.002;2022-07-29T00:48:10;100676.53;;;21.16;77.22
50434;BME280;36361;38.954;-9.002;2022-07-29T00:49:11;100661.00;;;21.20;77.64
50434;BME280;36361;38.954;-9.002;2022-07-29T00:50:13;100664.03;;;21.29;77.85
50434;BME280;36361;38.954;-9.002;2022-07-29T00:51:14;100663.63;;;21.51;76.42
50434;BME280;36361;38.954;-9.002;2022-07-29T00:52:15;100670.38;;;21.35;76.94
50434;BME280;36361;38.954;-9.002;2022-07-29T00:53:16;100655.72;;;21.29;77.30
50434;BME280;36361;38.954;-9.002;2022-07-29T00:54:17;100659.44;;;21.53;77.27
50434;BME280;36361;38.954;-9.002;2022-07-29T00:55:18;100658.00;;;21.61;75.63
50434;BME280;36361;38.954;-9.002;2022-07-29T00:56:19;100664.03;;;21.29;76.91
50434;BME280;36361;38.954;-9.002;2022-07-29T00:57:19;100657.31;;;21.74;75.84
50434;BME280;36361;38.954;-9.002;2022-07-29T00:58:21;100653.88;;;21.58;75.80
50434;BME280;36361;38.954;-9.002;2022-07-29T00:59:22;100654.38;;;21.21;77.13
50434;BME280;36361;38.954;-9.002;2022-07-29T01:00:24;100656.34;;;21.60;76.16
50434;BME280;36361;38.954;-9.002;2022-07-29T01:01:25;100648.75;;;21.37;77.71
50434;BME280;36361;38.954;-9.002;2022-07-29T01:02:26;100649.47;;;21.86;75.40
50434;BME280;36361;38.954;-9.002;2022-07-29T01:03:27;100648.13;;;22.13;74.47
50434;BME280;36361;38.954;-9.002;2022-07-29T01:04:28;100645.13;;;22.33;73.56
50434;BME280;36361;38.954;-9.002;2022-07-29T01:05:30;100640.97;;;22.07;74.48
50434;BME280;36361;38.954;-9.002;2022-07-29T01:06:31;100643.06;;;22.44;72.93
50434;BME280;36361;38.954;-9.002;2022-07-29T01:07:34;100639.63;;;22.28;72.78
50434;BME280;36361;38.954;-9.002;2022-07-29T01:08:37;100637.66;;;22.05;73.60
50434;BME280;36361;38.954;-9.002;2022-07-29T01:09:38;100636.91;;;21.94;74.51
50434;BME280;36361;38.954;-9.002;2022-07-29T01:10:41;100633.63;;;21.19;77.88
50434;BME280;36361;38.954;-9.002;2022-07-29T01:11:45;100638.91;;;21.15;77.25
50434;BME280;36361;38.954;-9.002;2022-07-29T01:12:50;100646.91;;;21.61;75.96
50434;BME280;36361;38.954;-9.002;2022-07-29T01:13:51;100644.19;;;21.56;75.73
50434;BME280;36361;38.954;-9.002;2022-07-29T01:14:54;100641.03;;;21.34;76.39
50434;BME280;36361;38.954;-9.002;2022-07-29T01:15:59;100630.91;;;21.53;76.54
50434;BME280;36361;38.954;-9.002;2022-07-29T01:18:03;100631.19;;;21.85;74.97
50434;BME280;36361;38.954;-9.002;2022-07-29T01:18:42;100634.41;;;21.29;76.82
50434;BME280;36361;38.954;-9.002;2022-07-29T01:19:53;100626.75;;;21.11;77.96
50434;BME280;36361;38.954;-9.002;2022-07-29T01:26:14;100629.03;;;21.04;77.99
50434;BME280;36361;38.954;-9.002;2022-07-29T01:29:56;100618.75;;;21.10;78.00
50434;BME280;36361;38.954;-9.002;2022-07-29T01:31:00;100626.19;;;21.14;77.72
50434;BME280;36361;38.954;-9.002;2022-07-29T01:32:12;100615.22;;;20.99;78.61
50434;BME280;36361;38.954;-9.002;2022-07-29T01:33:17;100625.22;;;20.90;78.62
50434;BME280;36361;38.954;-9.002;2022-07-29T01:34:43;100609.53;;;21.19;77.66
50434;BME280;36361;38.954;-9.002;2022-07-29T01:35:46;100610.09;;;20.77;79.07
50434;BME280;36361;38.954;-9.002;2022-07-29T01:36:51;100603.09;;;20.90;79.13
50434;BME280;36361;38.954;-9.002;2022-07-29T01:39:07;100604.97;;;20.50;80.23
50434;BME280;36361;38.954;-9.002;2022-07-29T01:40:40;100599.44;;;20.50;80.51
50434;BME280;36361;38.954;-9.002;2022-07-29T01:41:55;100613.28;;;20.35;81.13
50434;BME280;36361;38.954;-9.002;2022-07-29T01:42:58;100599.16;;;20.47;80.44
50434;BME280;36361;38.954;-9.002;2022-07-29T01:44:27;100597.78;;;20.39;81.37
50434;BME280;36361;38.954;-9.002;2022-07-29T01:45:40;100585.38;;;20.96;79.48
50434;BME280;36361;38.954;-9.002;2022-07-29T01:46:52;100590.75;;;20.72;79.87
50434;BME280;36361;38.954;-9.002;2022-07-29T01:50:10;100573.81;;;21.28;76.72
50434;BME280;36361;38.954;-9.002;2022-07-29T01:52:21;100563.78;;;20.93;78.64
50434;BME280;36361;38.954;-9.002;2022-07-29T01:53:33;100569.53;;;20.62;79.35
50434;BME280;36361;38.954;-9.002;2022-07-29T01:54:43;100567.78;;;20.77;79.63
50434;BME280;36361;38.954;-9.002;2022-07-29T01:55:47;100562.84;;;20.68;79.27
50434;BME280;36361;38.954;-9.002;2022-07-29T01:56:51;100560.53;;;20.86;78.98
50434;BME280;36361;38.954;-9.002;2022-07-29T01:57:52;100564.97;;;21.21;77.94
50434;BME280;36361;38.954;-9.002;2022-07-29T01:58:54;100571.63;;;21.20;77.13
50434;BME280;36361;38.954;-9.002;2022-07-29T01:59:57;100557.06;;;20.65;79.90
50434;BME280;36361;38.954;-9.002;2022-07-29T02:00:59;100555.13;;;20.65;79.37
50434;BME280;36361;38.954;-9.002;2022-07-29T02:02:02;100553.38;;;20.85;79.33
50434;BME280;36361;38.954;-9.002;2022-07-29T02:03:09;100568.03;;;20.85;77.92
50434;BME280;36361;38.954;-9.002;2022-07-29T02:04:10;100552.69;;;21.66;76.25
50434;BME280;36361;38.954;-9.002;2022-07-29T02:05:15;100551.91;;;21.90;74.99
50434;BME280;36361;38.954;-9.002;2022-07-29T02:06:19;100545.38;;;22.04;73.65
50434;BME280;36361;38.954;-9.002;2022-07-29T02:07:23;100546.06;;;21.67;74.86
50434;BME280;36361;38.954;-9.002;2022-07-29T02:08:26;100540.19;;;21.98;74.10
50434;BME280;36361;38.954;-9.002;2022-07-29T02:09:29;100544.56;;;21.75;73.89
50434;BME280;36361;38.954;-9.002;2022-07-29T02:10:35;100540.47;;;21.72;74.53
50434;BME280;36361;38.954;-9.002;2022-07-29T02:11:38;100540.31;;;21.88;73.62
50434;BME280;36361;38.954;-9.002;2022-07-29T02:12:42;100539.06;;;21.46;74.48
50434;BME280;36361;38.954;-9.002;2022-07-29T02:13:44;100536.25;;;21.51;76.14
50434;BME280;36361;38.954;-9.002;2022-07-29T02:14:49;100545.31;;;22.33;72.69
50434;BME280;36361;38.954;-9.002;2022-07-29T02:15:55;100531.47;;;21.85;74.29
50434;BME280;36361;38.954;-9.002;2022-07-29T02:16:58;100527.97;;;21.99;73.78
50434;BME280;36361;38.954;-9.002;2022-07-29T02:18:05;100540.16;;;21.74;74.54
50434;BME280;36361;38.954;-9.002;2022-07-29T02:19:08;100529.06;;;21.50;75.60
50434;BME280;36361;38.954;-9.002;2022-07-29T02:20:10;100526.22;;;21.55;74.61
50434;BME280;36361;38.954;-9.002;2022-07-29T02:21:12;100521.50;;;21.55;74.66
50434;BME280;36361;38.954;-9.002;2022-07-29T02:22:14;100527.78;;;21.66;74.53
50434;BME280;36361;38.954;-9.002;2022-07-29T02:23:20;100534.88;;;21.77;74.84
50434;BME280;36361;38.954;-9.002;2022-07-29T02:24:23;100521.47;;;21.84;73.73
50434;BME280;36361;38.954;-9.002;2022-07-29T02:25:25;100517.19;;;21.10;76.37
50434;BME280;36361;38.954;-9.002;2022-07-29T02:26:30;100525.91;;;21.33;76.05
50434;BME280;36361;38.954;-9.002;2022-07-29T02:27:34;100523.63;;;21.40;76.22
50434;BME280;36361;38.954;-9.002;2022-07-29T02:28:36;100519.75;;;21.41;75.12
50434;BME280;36361;38.954;-9.002;2022-07-29T02:29:37;100526.31;;;20.77;78.23
50434;BME280;36361;38.954;-9.002;2022-07-29T02:30:41;100523.16;;;20.49;79.16
50434;BME280;36361;38.954;-9.002;2022-07-29T02:31:44;100519.06;;;20.81;79.14
50434;BME280;36361;38.954;-9.002;2022-07-29T02:32:54;100528.03;;;20.67;79.42
50434;BME280;36361;38.954;-9.002;2022-07-29T02:33:55;100524.59;;;20.86;78.73
50434;BME280;36361;38.954;-9.002;2022-07-29T02:34:58;100523.41;;;20.53;80.01
50434;BME280;36361;38.954;-9.002;2022-07-29T02:36:01;100527.13;;;21.11;77.83
50434;BME280;36361;38.954;-9.002;2022-07-29T02:37:03;100519.00;;;21.59;76.25
50434;BME280;36361;38.954;-9.002;2022-07-29T02:38:05;100531.28;;;21.48;75.89
50434;BME280;36361;38.954;-9.002;2022-07-29T02:39:26;100514.06;;;22.04;74.03
50434;BME280;36361;38.954;-9.002;2022-07-29T02:40:29;100519.94;;;21.73;74.22
50434;BME280;36361;38.954;-9.002;2022-07-29T02:42:31;100530.03;;;20.96;77.29
50434;BME280;36361;38.954;-9.002;2022-07-29T02:43:40;100516.00;;;21.21;77.40
50434;BME280;36361;38.954;-9.002;2022-07-29T02:44:44;100518.44;;;20.94;78.25
50434;BME280;36361;38.954;-9.002;2022-07-29T02:45:47;100515.72;;;21.23;76.38
50434;BME280;36361;38.954;-9.002;2022-07-29T02:47:59;100513.28;;;21.50;75.53
50434;BME280;36361;38.954;-9.002;2022-07-29T02:49:10;100523.47;;;20.87;77.98
50434;BME280;36361;38.954;-9.002;2022-07-29T02:50:17;100522.16;;;20.74;79.67
50434;BME280;36361;38.954;-9.002;2022-07-29T02:51:34;100513.94;;;21.03;78.00
50434;BME280;36361;38.954;-9.002;2022-07-29T02:53:07;100504.28;;;21.88;74.55
50434;BME280;36361;38.954;-9.002;2022-07-29T02:54:11;100509.41;;;21.46;76.33
50434;BME280;36361;38.954;-9.002;2022-07-29T02:55:34;100520.69;;;20.87;77.74
50434;BME280;36361;38.954;-9.002;2022-07-29T02:56:39;100513.63;;;20.65;79.37
50434;BME280;36361;38.954;-9.002;2022-07-29T02:57:51;100501.19;;;21.02;77.58
50434;BME280;36361;38.954;-9.002;2022-07-29T02:58:58;100513.94;;;21.03;77.88
50434;BME280;36361;38.954;-9.002;2022-07-29T03:00:10;100503.03;;;21.51;76.40
50434;BME280;36361;38.954;-9.002;2022-07-29T03:01:23;100511.22;;;20.59;79.26
50434;BME280;36361;38.954;-9.002;2022-07-29T03:02:25;100505.09;;;21.01;78.44
50434;BME280;36361;38.954;-9.002;2022-07-29T03:03:31;100508.81;;;20.86;78.59
50434;BME280;36361;38.954;-9.002;2022-07-29T03:04:34;100512.50;;;20.71;78.98
50434;BME280;36361;38.954;-9.002;2022-07-29T03:05:35;100516.84;;;20.83;79.44
50434;BME280;36361;38.954;-9.002;2022-07-29T03:06:40;100526.94;;;20.63;79.77
50434;BME280;36361;38.954;-9.002;2022-07-29T03:07:46;100514.34;;;20.86;79.03
50434;BME280;36361;38.954;-9.002;2022-07-29T03:08:51;100509.16;;;21.72;75.51
50434;BME280;36361;38.954;-9.002;2022-07-29T03:09:58;100509.88;;;21.24;77.34
50434;BME280;36361;38.954;-9.002;2022-07-29T03:11:00;100509.81;;;20.56;79.82
50434;BME280;36361;38.954;-9.002;2022-07-29T03:12:03;100507.69;;;20.38;81.07
50434;BME280;36361;38.954;-9.002;2022-07-29T03:13:04;100503.31;;;20.32;81.49
50434;BME280;36361;38.954;-9.002;2022-07-29T03:14:06;100512.09;;;20.39;80.87
50434;BME280;36361;38.954;-9.002;2022-07-29T03:15:08;100509.81;;;21.35;77.10
50434;BME280;36361;38.954;-9.002;2022-07-29T03:16:10;100519.50;;;20.98;78.15
50434;BME280;36361;38.954;-9.002;2022-07-29T03:17:11;100513.22;;;20.38;80.83
50434;BME280;36361;38.954;-9.002;2022-07-29T03:18:13;100519.38;;;20.20;81.53
50434;BME280;36361;38.954;-9.002;2022-07-29T03:19:14;100517.81;;;20.03;82.28
50434;BME280;36361;38.954;-9.002;2022-07-29T03:20:16;100522.19;;;20.09;82.43
50434;BME280;36361;38.954;-9.002;2022-07-29T03:21:16;100532.16;;;20.00;82.83
50434;BME280;36361;38.954;-9.002;2022-07-29T03:22:17;100520.38;;;20.39;81.73
50434;BME280;36361;38.954;-9.002;2022-07-29T03:23:19;100518.50;;;20.34;81.30
50434;BME280;36361;38.954;-9.002;2022-07-29T03:24:47;100503.41;;;21.68;76.40
50434;BME280;36361;38.954;-9.002;2022-07-29T03:25:49;100510.97;;;20.94;78.02
50434;BME280;36361;38.954;-9.002;2022-07-29T03:26:49;100515.69;;;20.94;78.58
50434;BME280;36361;38.954;-9.002;2022-07-29T03:27:50;100496.78;;;21.01;78.05
50434;BME280;36361;38.954;-9.002;2022-07-29T03:28:51;100487.69;;;20.61;80.13
50434;BME280;36361;38.954;-9.002;2022-07-29T03:29:52;100510.78;;;20.26;81.50
50434;BME280;36361;38.954;-9.002;2022-07-29T03:30:53;100492.38;;;21.00;78.70
50434;BME280;36361;38.954;-9.002;2022-07-29T03:31:54;100493.00;;;20.92;79.10
50434;BME280;36361;38.954;-9.002;2022-07-29T03:32:55;100507.09;;;20.95;78.40
50434;BME280;36361;38.954;-9.002;2022-07-29T03:33:56;100502.72;;;20.40;80.86
50434;BME280;36361;38.954;-9.002;2022-07-29T03:34:57;100497.22;;;20.30;81.62
50434;BME280;36361;38.954;-9.002;2022-07-29T03:35:58;100484.63;;;20.13;82.30
50434;BME280;36361;38.954;-9.002;2022-07-29T03:36:59;100498.28;;;20.49;81.32
50434;BME280;36361;38.954;-9.002;2022-07-29T03:38:00;100498.34;;;20.29;81.64
50434;BME280;36361;38.954;-9.002;2022-07-29T03:39:02;100507.53;;;20.14;82.96
50434;BME280;36361;38.954;-9.002;2022-07-29T03:40:07;100502.94;;;20.54;81.30
50434;BME280;36361;38.954;-9.002;2022-07-29T03:41:10;100506.59;;;20.44;81.34
50434;BME280;36361;38.954;-9.002;2022-07-29T03:42:13;100506.06;;;20.32;81.62
50434;BME280;36361;38.954;-9.002;2022-07-29T03:43:17;100501.09;;;20.34;81.85
50434;BME280;36361;38.954;-9.002;2022-07-29T03:44:20;100496.75;;;20.17;82.40
50434;BME280;36361;38.954;-9.002;2022-07-29T03:45:23;100494.00;;;21.06;78.65
50434;BME280;36361;38.954;-9.002;2022-07-29T03:46:26;100504.28;;;20.56;80.20
50434;BME280;36361;38.954;-9.002;2022-07-29T03:47:30;100486.75;;;21.10;78.30
50434;BME280;36361;38.954;-9.002;2022-07-29T03:48:33;100493.31;;;20.46;80.56
50434;BME280;36361;38.954;-9.002;2022-07-29T03:49:36;100490.97;;;20.68;80.46
50434;BME280;36361;38.954;-9.002;2022-07-29T03:50:56;100488.16;;;21.42;76.91
50434;BME280;36361;38.954;-9.002;2022-07-29T03:51:56;100496.88;;;21.54;76.58
50434;BME280;36361;38.954;-9.002;2022-07-29T03:52:58;100503.63;;;21.72;75.55
50434;BME280;36361;38.954;-9.002;2022-07-29T03:54:00;100498.44;;;21.65;75.69
50434;BME280;36361;38.954;-9.002;2022-07-29T03:55:05;100491.78;;;21.37;76.75
50434;BME280;36361;38.954;-9.002;2022-07-29T03:56:06;100490.97;;;21.37;76.39
50434;BME280;36361;38.954;-9.002;2022-07-29T03:57:15;100502.66;;;20.55;80.56
50434;BME280;36361;38.954;-9.002;2022-07-29T03:58:17;100490.38;;;20.71;79.57
50434;BME280;36361;38.954;-9.002;2022-07-29T03:59:20;100493.56;;;20.94;78.42
50434;BME280;36361;38.954;-9.002;2022-07-29T04:00:23;100508.25;;;20.35;81.15
50434;BME280;36361;38.954;-9.002;2022-07-29T04:01:25;100470.31;;;20.90;79.42
50434;BME280;36361;38.954;-9.002;2022-07-29T04:02:26;100491.56;;;21.34;77.19
50434;BME280;36361;38.954;-9.002;2022-07-29T04:03:27;100481.16;;;21.49;76.20
50434;BME280;36361;38.954;-9.002;2022-07-29T04:04:28;100497.72;;;21.20;77.38
50434;BME280;36361;38.954;-9.002;2022-07-29T04:05:29;100485.34;;;21.71;75.42
50434;BME280;36361;38.954;-9.002;2022-07-29T04:06:38;100485.13;;;21.67;75.55
50434;BME280;36361;38.954;-9.002;2022-07-29T04:07:40;100497.03;;;21.92;74.85
50434;BME280;36361;38.954;-9.002;2022-07-29T04:08:40;100500.56;;;22.21;73.31
50434;BME280;36361;38.954;-9.002;2022-07-29T04:09:41;100495.19;;;22.06;74.08
50434;BME280;36361;38.954;-9.002;2022-07-29T04:10:42;100508.34;;;21.71;74.87
50434;BME280;36361;38.954;-9.002;2022-07-29T04:11:43;100499.09;;;22.05;74.05
50434;BME280;36361;38.954;-9.002;2022-07-29T04:12:45;100497.59;;;21.07;77.13
50434;BME280;36361;38.954;-9.002;2022-07-29T04:13:46;100490.31;;;20.82;79.00
50434;BME280;36361;38.954;-9.002;2022-07-29T04:14:47;100499.38;;;21.79;75.12
50434;BME280;36361;38.954;-9.002;2022-07-29T04:15:47;100499.03;;;21.62;75.59
50434;BME280;36361;38.954;-9.002;2022-07-29T04:16:51;100498.16;;;21.91;74.72
50434;BME280;36361;38.954;-9.002;2022-07-29T04:17:53;100498.94;;;21.43;75.74
50434;BME280;36361;38.954;-9.002;2022-07-29T04:18:57;100496.03;;;20.95;78.25
50434;BME280;36361;38.954;-9.002;2022-07-29T04:19:57;100505.56;;;21.13;77.90
50434;BME280;36361;38.954;-9.002;2022-07-29T04:20:58;100511.91;;;20.74;79.15
50434;BME280;36361;38.954;-9.002;2022-07-29T04:22:01;100506.69;;;20.73;79.17
50434;BME280;36361;38.954;-9.002;2022-07-29T04:23:02;100508.50;;;21.27;77.37
50434;BME280;36361;38.954;-9.002;2022-07-29T04:24:02;100503.50;;;21.58;75.90
50434;BME280;36361;38.954;-9.002;2022-07-29T04:25:04;100496.06;;;22.01;74.77
50434;BME280;36361;38.954;-9.002;2022-07-29T04:26:04;100513.13;;;21.90;74.28
50434;BME280;36361;38.954;-9.002;2022-07-29T04:27:05;100512.81;;;21.91;74.64
50434;BME280;36361;38.954;-9.002;2022-07-29T04:28:07;100517.41;;;22.01;73.93
50434;BME280;36361;38.954;-9.002;2022-07-29T04:29:08;100507.78;;;21.45;75.88
50434;BME280;36361;38.954;-9.002;2022-07-29T04:30:09;100498.00;;;21.24;77.14
50434;BME280;36361;38.954;-9.002;2022-07-29T04:31:11;100526.19;;;22.13;73.71
50434;BME280;36361;38.954;-9.002;2022-07-29T04:32:12;100510.72;;;22.07;73.36
50434;BME280;36361;38.954;-9.002;2022-07-29T04:33:12;100516.72;;;21.90;74.18
50434;BME280;36361;38.954;-9.002;2022-07-29T04:34:13;100518.25;;;21.48;76.05
50434;BME280;36361;38.954;-9.002;2022-07-29T04:35:14;100523.13;;;21.33;76.49
50434;BME280;36361;38.954;-9.002;2022-07-29T04:36:17;100515.50;;;21.14;77.88
50434;BME280;36361;38.954;-9.002;2022-07-29T04:37:18;100511.13;;;21.08;78.02
50434;BME280;36361;38.954;-9.002;2022-07-29T04:38:22;100525.19;;;21.75;75.74
50434;BME280;36361;38.954;-9.002;2022-07-29T04:39:24;100536.06;;;21.95;74.31
50434;BME280;36361;38.954;-9.002;2022-07-29T04:40:24;100529.44;;;21.67;75.42
50434;BME280;36361;38.954;-9.002;2022-07-29T04:41:25;100526.56;;;21.48;76.28
50434;BME280;36361;38.954;-9.002;2022-07-29T04:42:26;100532.91;;;22.07;73.70
50434;BME280;36361;38.954;-9.002;2022-07-29T04:43:27;100536.28;;;21.99;73.93
50434;BME280;36361;38.954;-9.002;2022-07-29T04:44:27;100541.09;;;21.64;75.79
50434;BME280;36361;38.954;-9.002;2022-07-29T04:45:29;100546.97;;;21.23;77.47
50434;BME280;36361;38.954;-9.002;2022-07-29T04:46:29;100552.34;;;21.10;78.12
50434;BME280;36361;38.954;-9.002;2022-07-29T04:47:30;100535.41;;;21.16;77.92
50434;BME280;36361;38.954;-9.002;2022-07-29T04:48:31;100548.19;;;21.12;78.21
50434;BME280;36361;38.954;-9.002;2022-07-29T04:49:31;100550.69;;;21.09;78.36
50434;BME280;36361;38.954;-9.002;2022-07-29T04:50:32;100560.50;;;20.91;79.33
50434;BME280;36361;38.954;-9.002;2022-07-29T04:51:34;100555.16;;;21.05;78.79
50434;BME280;36361;38.954;-9.002;2022-07-29T04:52:34;100565.72;;;20.97;78.84
50434;BME280;36361;38.954;-9.002;2022-07-29T04:53:38;100553.06;;;21.20;78.13
50434;BME280;36361;38.954;-9.002;2022-07-29T04:54:44;100557.19;;;20.89;79.52
50434;BME280;36361;38.954;-9.002;2022-07-29T04:55:45;100571.22;;;20.53;81.15
50434;BME280;36361;38.954;-9.002;2022-07-29T04:56:46;100563.09;;;20.72;80.69
50434;BME280;36361;38.954;-9.002;2022-07-29T04:57:47;100554.69;;;21.32;78.15
50434;BME280;36361;38.954;-9.002;2022-07-29T04:58:47;100576.91;;;21.21;77.69
50434;BME280;36361;38.954;-9.002;2022-07-29T04:59:48;100559.31;;;21.41;77.25
50434;BME280;36361;38.954;-9.002;2022-07-29T05:00:50;100568.50;;;21.66;76.65
50434;BME280;36361;38.954;-9.002;2022-07-29T05:01:51;100577.78;;;21.51;76.61
50434;BME280;36361;38.954;-9.002;2022-07-29T05:02:51;100574.59;;;21.34;77.50
50434;BME280;36361;38.954;-9.002;2022-07-29T05:03:52;100575.19;;;20.86;79.23
50434;BME280;36361;38.954;-9.002;2022-07-29T05:04:53;100576.63;;;20.79;80.14
50434;BME280;36361;38.954;-9.002;2022-07-29T05:05:53;100569.56;;;21.41;77.65
50434;BME280;36361;38.954;-9.002;2022-07-29T05:06:54;100573.03;;;21.85;75.46
50434;BME280;36361;38.954;-9.002;2022-07-29T05:07:55;100574.09;;;21.26;77.56
50434;BME280;36361;38.954;-9.002;2022-07-29T05:08:56;100580.72;;;21.31;77.66
50434;BME280;36361;38.954;-9.002;2022-07-29T05:09:57;100581.03;;;20.85;79.53
50434;BME280;36361;38.954;-9.002;2022-07-29T05:10:58;100577.91;;;21.36;77.70
50434;BME280;36361;38.954;-9.002;2022-07-29T05:11:58;100582.94;;;21.28;77.70
50434;BME280;36361;38.954;-9.002;2022-07-29T05:12:59;100575.19;;;21.31;77.41
50434;BME280;36361;38.954;-9.002;2022-07-29T05:14:00;100584.09;;;21.22;77.77
50434;BME280;36361;38.954;-9.002;2022-07-29T05:15:01;100588.78;;;21.22;78.35
50434;BME280;36361;38.954;-9.002;2022-07-29T05:16:01;100589.13;;;21.10;78.29
50434;BME280;36361;38.954;-9.002;2022-07-29T05:17:02;100587.59;;;21.67;76.11
50434;BME280;36361;38.954;-9.002;2022-07-29T05:18:03;100577.56;;;21.42;77.04
50434;BME280;36361;38.954;-9.002;2022-07-29T05:19:04;100580.06;;;21.73;75.80
50434;BME280;36361;38.954;-9.002;2022-07-29T05:20:06;100585.00;;;21.47;76.73
50434;BME280;36361;38.954;-9.002;2022-07-29T05:21:06;100584.06;;;21.62;76.47
50434;BME280;36361;38.954;-9.002;2022-07-29T05:22:07;100597.25;;;21.99;74.97
50434;BME280;36361;38.954;-9.002;2022-07-29T05:23:08;100585.72;;;21.57;76.29
50434;BME280;36361;38.954;-9.002;2022-07-29T05:24:09;100590.38;;;20.89;79.41
50434;BME280;36361;38.954;-9.002;2022-07-29T05:25:09;100588.75;;;20.88;79.34
50434;BME280;36361;38.954;-9.002;2022-07-29T05:26:10;100590.31;;;20.99;78.96
50434;BME280;36361;38.954;-9.002;2022-07-29T05:27:11;100585.97;;;20.88;79.69
50434;BME280;36361;38.954;-9.002;2022-07-29T05:28:12;100593.91;;;21.39;78.01
50434;BME280;36361;38.954;-9.002;2022-07-29T05:29:12;100601.50;;;20.79;79.57
50434;BME280;36361;38.954;-9.002;2022-07-29T05:30:13;100601.63;;;20.58;81.41
50434;BME280;36361;38.954;-9.002;2022-07-29T05:31:14;100596.28;;;20.72;80.66
50434;BME280;36361;38.954;-9.002;2022-07-29T05:32:15;100595.22;;;21.12;79.29
50434;BME280;36361;38.954;-9.002;2022-07-29T05:33:15;100603.31;;;21.04;79.12
50434;BME280;36361;38.954;-9.002;2022-07-29T05:34:16;100595.53;;;21.06;79.08
50434;BME280;36361;38.954;-9.002;2022-07-29T05:35:17;100593.88;;;21.49;77.61
50434;BME280;36361;38.954;-9.002;2022-07-29T05:36:18;100592.47;;;21.07;78.76
50434;BME280;36361;38.954;-9.002;2022-07-29T05:37:19;100604.19;;;20.94;79.48
50434;BME280;36361;38.954;-9.002;2022-07-29T05:38:20;100603.31;;;21.04;79.19
50434;BME280;36361;38.954;-9.002;2022-07-29T05:39:21;100611.59;;;20.54;81.37
50434;BME280;36361;38.954;-9.002;2022-07-29T05:40:22;100607.16;;;20.58;81.30
50434;BME280;36361;38.954;-9.002;2022-07-29T05:41:23;100606.09;;;20.34;82.65